Historyczne dane pomiarowe

Dodano dane terminowe – wersja testowa.

Dane z okresu 1951-2019

Wersja bazy: 1.34 [2019-03-16, lista zmian], aktualizacja planowana na 2019-04-15

Dane meteo z obszaru Polski uzyskane na podstawie danych udostępnionych przez Instytut Meteorologii i Gospodarki Wodnej – Państwowy Instytut Badawczy.

 

Wybierz Datę:    

       

TemperaturaWilgotnośćWiatrCiśnienieOpadyŚniegCzas trwania zjawisk
 Stacja t tx tn tng RH VA  wxwx mslp ppp RRR   cm mm wxwxwxwxwxwxwx
1964-02-15-10.0 -3.1-18.5--- 1.3 0.3---- 0.0-- 5---------
1964-02-14-11.2 -6.1-15.8--- 2.7 3.0---- 0.1-- 5---------
1964-02-13 -7.8 -2.4-11.5--- 5.3 5.7---- 1.5-- 2---------
1964-02-12 -3.5 -0.4 -6.8--- 4.7 5.7---- 0.9-- 1---------
1964-02-11 0.0 1.5 -2.0--- 8.0 5.7---- 1.6-- 2---------
1964-02-10 -2.9 -0.7 -5.6--- 7.7 3.3---- 3.1------------
1964-02-09 -1.4 2.0 -4.0--- 8.0 5.7---- 0.3------------
1964-02-08 -0.1 1.6 -6.5--- 8.0 8.3---- 2.0-- 1---------
1964-02-07 -4.3 -2.7 -6.3--- 6.0 7.7---- 0.2-- 2---------
1964-02-06 -5.5 -0.8 -7.6--- 6.0 9.0---- 0.5-- 1---------
1964-02-05 0.0 1.7 -2.0--- 5.0 10.3---- 0.3------------
1964-02-04 1.8 3.5 -0.3--- 6.7 6.7---- 5.2------------
1964-02-03 0.3 4.4 -1.2--- 6.3 2.7---- 0.0------------
1964-02-02 2.5 4.2 1.6--- 8.0 9.0---- 1.2------------
1964-02-01 2.0 4.2 -1.4--- 8.0 8.3---- 3.3------------
1964-01-31 -0.2 1.7 -7.6--- 8.0 5.0---- 0.1------------
1964-01-30 -3.1 0.6 -7.3--- 2.7 3.7---- 0.0------------
1964-01-29 -3.1 0.4 -8.2--- 3.0 4.0---- 0.0------------
1964-01-28 -6.4 -2.5-11.6--- 0.0 2.3---- 0.0------------
1964-01-27 -3.0 2.7 -5.0--- 0.3 7.0---- 0.0------------
1964-01-26 0.4 1.4 -2.3--- 7.0 7.0---- 2.7------------
1964-01-25 1.2 2.1 -1.3--- 6.7 10.7---- 0.1-- 1---------
1964-01-24 -0.6 0.5 -4.3--- 8.0 8.0---- 0.2-- 1---------
1964-01-23 -1.0 1.7 -2.8--- 8.0 4.3---- 0.0-- 1---------
1964-01-22 0.2 1.6 -3.3--- 8.0 7.3---- 0.0-- 2---------
1964-01-21 -4.0 -2.5 -8.3--- 4.7 5.3---- 0.0-- 2---------
1964-01-20 -6.4 -3.5 -7.5--- 5.3 2.7---- 0.0-- 2---------
1964-01-19 -7.1 -3.2 -7.5--- 6.0 1.7---- 0.0-- 2---------
1964-01-18 -3.4 -2.7 -3.5--- 8.0 5.3---- 0.2-- 3---------
1964-01-17 -5.5 -2.9-22.3--- 7.0 6.7---- 0.1-- 3---------
1964-01-16-11.7 -5.4-16.3--- 5.3 2.3---- 0.3-- 2---------
1964-01-15 -6.7 -4.8-10.1--- 4.7 5.7---- 0.5-- 1---------
1964-01-14 -8.2 -5.1-10.4--- 5.3 4.0---- 0.3------------
1964-01-13 -8.8 -3.9-13.0--- 0.0 1.3---- 0.0------------
1964-01-12 -8.8 -1.8-14.2--- 0.0 2.0---- 0.0------------
1964-01-11-11.1 -6.8-14.8--- 0.0 0.7---- 0.0------------
1964-01-10-10.7 -7.1-13.0--- 0.0 1.3---- 0.0------------
1964-01-09 -8.0 -2.5 -9.5--- 2.7 2.0---- 0.0------------
1964-01-08 -3.6 0.3 -5.1--- 0.0 2.3---- 0.0------------
1964-01-07 -4.5 -3.6 -9.6--- 8.0 1.7---- 0.0------------
1964-01-06 -6.5 -1.3 -8.3--- 0.0 0.3---- 0.0------------
1964-01-05 -3.5 2.2 -7.1--- 0.0 1.0---- 0.0------------
1964-01-04 -3.6 0.3 -6.7--- 0.7 2.3---- 0.0------------
1964-01-03 -1.0 1.1 -1.5--- 8.0 2.0---- 0.0------------
1964-01-02 0.8 1.2 -1.8--- 8.0 3.0---- 0.4-- 1---------
1964-01-01 -1.7 -0.3 -3.5--- 3.7 5.0---- 0.5------------
1963-12-31 -0.3 2.2 -2.0--- 2.7 3.0---- 0.0------------
1963-12-30 0.4 1.1 -0.7--- 6.7 4.3---- 0.2------------
1963-12-29 0.3 1.9 -0.3--- 7.0 3.3---- 0.0------------
1963-12-28 0.6 1.6 0.5--- 8.0 4.3---- 1.5------------
1963-12-27 1.5 3.2 1.2--- 8.0 5.7---- 0.0------------
1963-12-26 0.0 2.2 -6.5--- 7.0 3.7---- 2.4-- 7---------
1963-12-25 -3.9 0.5-16.1--- 6.7 2.0---- 0.1-- 7---------
1963-12-24 -9.5 -6.8-15.2--- 2.7 2.7---- 0.0-- 8---------
1963-12-23 -8.1 -6.8-15.1--- 7.3 3.3---- 0.0-- 8---------
1963-12-22 -7.7 -6.7 -9.0--- 8.0 1.3---- 0.0-- 8---------
1963-12-21 -7.5 -4.4-17.2--- 7.0 0.0---- 0.0-- 8---------
1963-12-20-14.5 -8.3-18.1--- 1.0 0.0---- 0.0-- 8---------
1963-12-19-12.7 -7.8-15.5--- 0.0 2.3---- 0.0-- 9---------
1963-12-18 -8.3 -4.5 -9.8--- 5.0 2.3---- 0.0-- 9---------
433.8 ms

 

Źródłem pochodzenia danych jest Instytut Meteorologii i Gospodarki Wodnej – Państwowy Instytut Badawczy. Dane Instytutu Meteorologii i Gospodarki Wodnej – Państwowego Instytutu Badawczego zostały przetworzone.

Dane źródłowe można odnaleźć na stronie https://dane.imgw.pl